sensor_id;sensor_type;location;lat;lon;timestamp;temperature;humidity
27759;DHT22;15148;48.972;12.794;2023-06-04T00:05:02;13.80;99.90
27759;DHT22;15148;48.972;12.794;2023-06-04T00:10:04;13.60;94.70
27759;DHT22;15148;48.972;12.794;2023-06-04T00:15:07;13.60;95.50
27759;DHT22;15148;48.972;12.794;2023-06-04T00:20:10;13.50;95.60
27759;DHT22;15148;48.972;12.794;2023-06-04T00:25:12;13.40;96.40
27759;DHT22;15148;48.972;12.794;2023-06-04T00:30:14;13.20;97.10
27759;DHT22;15148;48.972;12.794;2023-06-04T00:35:16;13.10;97.70
27759;DHT22;15148;48.972;12.794;2023-06-04T00:40:18;13.00;98.40
27759;DHT22;15148;48.972;12.794;2023-06-04T00:45:20;12.80;99.10
27759;DHT22;15148;48.972;12.794;2023-06-04T00:50:22;12.70;99.50
27759;DHT22;15148;48.972;12.794;2023-06-04T01:00:27;12.50;99.90
27759;DHT22;15148;48.972;12.794;2023-06-04T01:05:36;12.50;99.90
27759;DHT22;15148;48.972;12.794;2023-06-04T01:10:53;12.40;99.90
27759;DHT22;15148;48.972;12.794;2023-06-04T01:15:55;12.40;99.90
27759;DHT22;15148;48.972;12.794;2023-06-04T01:21:08;12.40;99.90
27759;DHT22;15148;48.972;12.794;2023-06-04T01:26:10;12.30;99.90
27759;DHT22;15148;48.972;12.794;2023-06-04T01:31:14;12.10;99.90
27759;DHT22;15148;48.972;12.794;2023-06-04T01:36:16;12.00;99.90
27759;DHT22;15148;48.972;12.794;2023-06-04T01:41:18;12.00;99.90
27759;DHT22;15148;48.972;12.794;2023-06-04T01:46:20;12.00;99.90
27759;DHT22;15148;48.972;12.794;2023-06-04T01:51:22;12.00;99.90
27759;DHT22;15148;48.972;12.794;2023-06-04T01:56:24;11.80;99.90
27759;DHT22;15148;48.972;12.794;2023-06-04T02:01:27;11.70;99.90
27759;DHT22;15148;48.972;12.794;2023-06-04T02:06:29;11.60;99.90
27759;DHT22;15148;48.972;12.794;2023-06-04T02:11:31;11.50;99.90
27759;DHT22;15148;48.972;12.794;2023-06-04T02:16:33;11.40;99.90
27759;DHT22;15148;48.972;12.794;2023-06-04T02:21:35;11.30;99.90
27759;DHT22;15148;48.972;12.794;2023-06-04T02:26:37;11.20;99.90
27759;DHT22;15148;48.972;12.794;2023-06-04T02:31:40;11.20;99.90
27759;DHT22;15148;48.972;12.794;2023-06-04T02:36:42;11.10;99.90
27759;DHT22;15148;48.972;12.794;2023-06-04T02:41:50;11.10;99.90
27759;DHT22;15148;48.972;12.794;2023-06-04T02:46:52;11.10;99.90
27759;DHT22;15148;48.972;12.794;2023-06-04T02:51:53;10.90;99.90
27759;DHT22;15148;48.972;12.794;2023-06-04T02:56:56;10.70;99.90
27759;DHT22;15148;48.972;12.794;2023-06-04T03:01:58;10.80;99.90
27759;DHT22;15148;48.972;12.794;2023-06-04T03:07:02;10.80;99.90
27759;DHT22;15148;48.972;12.794;2023-06-04T03:12:04;10.70;99.90
27759;DHT22;15148;48.972;12.794;2023-06-04T03:17:07;10.70;99.90
27759;DHT22;15148;48.972;12.794;2023-06-04T03:22:09;10.70;99.90
27759;DHT22;15148;48.972;12.794;2023-06-04T03:27:12;10.60;99.90
27759;DHT22;15148;48.972;12.794;2023-06-04T03:32:15;10.60;99.90
27759;DHT22;15148;48.972;12.794;2023-06-04T03:37:19;10.80;99.90
27759;DHT22;15148;48.972;12.794;2023-06-04T03:42:21;10.80;99.90
27759;DHT22;15148;48.972;12.794;2023-06-04T03:47:24;10.80;99.90
27759;DHT22;15148;48.972;12.794;2023-06-04T03:52:26;10.90;99.90
27759;DHT22;15148;48.972;12.794;2023-06-04T03:57:30;11.00;99.90
27759;DHT22;15148;48.972;12.794;2023-06-04T04:02:32;11.10;99.90
27759;DHT22;15148;48.972;12.794;2023-06-04T04:07:35;11.10;99.90
27759;DHT22;15148;48.972;12.794;2023-06-04T04:12:37;11.10;99.90
27759;DHT22;15148;48.972;12.794;2023-06-04T04:17:41;11.10;99.90
27759;DHT22;15148;48.972;12.794;2023-06-04T04:22:43;11.20;99.90
27759;DHT22;15148;48.972;12.794;2023-06-04T04:27:47;11.20;99.90
27759;DHT22;15148;48.972;12.794;2023-06-04T04:32:50;11.30;99.90
27759;DHT22;15148;48.972;12.794;2023-06-04T04:38:02;11.40;99.90
27759;DHT22;15148;48.972;12.794;2023-06-04T04:43:13;11.40;99.90
27759;DHT22;15148;48.972;12.794;2023-06-04T04:48:16;11.50;99.90
27759;DHT22;15148;48.972;12.794;2023-06-04T04:53:18;11.60;99.90
27759;DHT22;15148;48.972;12.794;2023-06-04T04:58:20;11.70;99.90
27759;DHT22;15148;48.972;12.794;2023-06-04T05:03:22;11.90;99.90
27759;DHT22;15148;48.972;12.794;2023-06-04T05:08:24;12.00;99.90
27759;DHT22;15148;48.972;12.794;2023-06-04T05:13:26;12.10;99.90
27759;DHT22;15148;48.972;12.794;2023-06-04T05:18:36;12.30;99.90
27759;DHT22;15148;48.972;12.794;2023-06-04T05:23:45;12.50;99.90
27759;DHT22;15148;48.972;12.794;2023-06-04T05:28:52;13.00;99.90
27759;DHT22;15148;48.972;12.794;2023-06-04T05:33:55;15.50;99.90
27759;DHT22;15148;48.972;12.794;2023-06-04T05:38:59;18.30;99.90
27759;DHT22;15148;48.972;12.794;2023-06-04T05:44:25;19.50;99.90
27759;DHT22;15148;48.972;12.794;2023-06-04T05:49:27;19.90;99.90
27759;DHT22;15148;48.972;12.794;2023-06-04T05:54:32;22.40;99.90
27759;DHT22;15148;48.972;12.794;2023-06-04T05:59:35;24.70;92.50
27759;DHT22;15148;48.972;12.794;2023-06-04T06:04:40;25.70;90.20
27759;DHT22;15148;48.972;12.794;2023-06-04T06:09:43;25.60;83.20
27759;DHT22;15148;48.972;12.794;2023-06-04T06:14:45;25.20;80.60
27759;DHT22;15148;48.972;12.794;2023-06-04T06:19:47;24.80;75.10
27759;DHT22;15148;48.972;12.794;2023-06-04T06:24:49;25.00;76.30
27759;DHT22;15148;48.972;12.794;2023-06-04T06:29:51;24.70;73.80
27759;DHT22;15148;48.972;12.794;2023-06-04T06:34:53;23.90;74.40
27759;DHT22;15148;48.972;12.794;2023-06-04T06:39:55;23.40;75.80
27759;DHT22;15148;48.972;12.794;2023-06-04T06:44:57;22.90;76.00
27759;DHT22;15148;48.972;12.794;2023-06-04T06:49:59;22.00;77.70
27759;DHT22;15148;48.972;12.794;2023-06-04T06:55:01;21.80;80.30
27759;DHT22;15148;48.972;12.794;2023-06-04T07:00:03;21.60;81.70
27759;DHT22;15148;48.972;12.794;2023-06-04T07:05:05;21.60;80.40
27759;DHT22;15148;48.972;12.794;2023-06-04T07:10:08;21.60;78.40
27759;DHT22;15148;48.972;12.794;2023-06-04T07:15:11;21.40;81.60
27759;DHT22;15148;48.972;12.794;2023-06-04T07:20:13;21.40;82.20
27759;DHT22;15148;48.972;12.794;2023-06-04T07:25:15;21.60;78.40
27759;DHT22;15148;48.972;12.794;2023-06-04T07:30:17;21.60;82.30
27759;DHT22;15148;48.972;12.794;2023-06-04T07:35:20;21.70;83.00
27759;DHT22;15148;48.972;12.794;2023-06-04T07:40:22;21.80;82.00
27759;DHT22;15148;48.972;12.794;2023-06-04T07:45:24;21.80;83.60
27759;DHT22;15148;48.972;12.794;2023-06-04T07:50:29;21.90;82.50
27759;DHT22;15148;48.972;12.794;2023-06-04T07:55:35;22.20;81.10
27759;DHT22;15148;48.972;12.794;2023-06-04T08:00:37;22.40;79.50
27759;DHT22;15148;48.972;12.794;2023-06-04T08:05:39;22.60;79.10
27759;DHT22;15148;48.972;12.794;2023-06-04T08:10:41;22.70;78.20
27759;DHT22;15148;48.972;12.794;2023-06-04T08:15:43;22.70;77.20
27759;DHT22;15148;48.972;12.794;2023-06-04T08:20:45;22.90;76.10
27759;DHT22;15148;48.972;12.794;2023-06-04T08:25:47;23.10;74.40
27759;DHT22;15148;48.972;12.794;2023-06-04T08:30:49;23.30;75.50
27759;DHT22;15148;48.972;12.794;2023-06-04T08:35:51;23.30;78.10
27759;DHT22;15148;48.972;12.794;2023-06-04T08:40:55;23.40;76.50
27759;DHT22;15148;48.972;12.794;2023-06-04T08:45:59;23.50;73.70
27759;DHT22;15148;48.972;12.794;2023-06-04T08:51:09;23.50;73.00
27759;DHT22;15148;48.972;12.794;2023-06-04T08:56:12;23.50;71.50
27759;DHT22;15148;48.972;12.794;2023-06-04T09:01:14;23.40;72.60
27759;DHT22;15148;48.972;12.794;2023-06-04T09:06:17;23.70;71.50
27759;DHT22;15148;48.972;12.794;2023-06-04T09:11:20;23.80;71.50
27759;DHT22;15148;48.972;12.794;2023-06-04T09:16:23;23.90;74.20
27759;DHT22;15148;48.972;12.794;2023-06-04T09:21:25;24.10;71.20
27759;DHT22;15148;48.972;12.794;2023-06-04T09:26:27;24.20;71.80
27759;DHT22;15148;48.972;12.794;2023-06-04T09:31:29;24.30;72.60
27759;DHT22;15148;48.972;12.794;2023-06-04T09:36:37;24.30;71.40
27759;DHT22;15148;48.972;12.794;2023-06-04T09:41:40;24.30;71.10
27759;DHT22;15148;48.972;12.794;2023-06-04T09:46:56;24.20;70.60
27759;DHT22;15148;48.972;12.794;2023-06-04T09:51:58;24.50;71.00
27759;DHT22;15148;48.972;12.794;2023-06-04T09:57:00;24.70;71.30
27759;DHT22;15148;48.972;12.794;2023-06-04T10:02:03;24.60;69.70
27759;DHT22;15148;48.972;12.794;2023-06-04T10:07:07;24.70;71.10
27759;DHT22;15148;48.972;12.794;2023-06-04T10:12:15;24.80;68.00
27759;DHT22;15148;48.972;12.794;2023-06-04T10:17:21;24.70;66.00
27759;DHT22;15148;48.972;12.794;2023-06-04T10:22:23;24.80;70.40
27759;DHT22;15148;48.972;12.794;2023-06-04T10:27:25;24.80;70.70
27759;DHT22;15148;48.972;12.794;2023-06-04T10:32:28;25.10;67.50
27759;DHT22;15148;48.972;12.794;2023-06-04T10:37:31;25.20;67.00
27759;DHT22;15148;48.972;12.794;2023-06-04T10:42:41;25.00;67.10
27759;DHT22;15148;48.972;12.794;2023-06-04T10:47:43;25.10;64.60
27759;DHT22;15148;48.972;12.794;2023-06-04T10:52:53;25.10;67.60
27759;DHT22;15148;48.972;12.794;2023-06-04T10:58:00;25.40;67.00
27759;DHT22;15148;48.972;12.794;2023-06-04T11:03:07;25.10;66.90
27759;DHT22;15148;48.972;12.794;2023-06-04T11:08:14;25.30;65.80
27759;DHT22;15148;48.972;12.794;2023-06-04T11:13:23;25.50;67.80
27759;DHT22;15148;48.972;12.794;2023-06-04T11:18:25;25.60;65.20
27759;DHT22;15148;48.972;12.794;2023-06-04T11:23:27;25.60;66.60
27759;DHT22;15148;48.972;12.794;2023-06-04T11:28:29;25.70;65.20
27759;DHT22;15148;48.972;12.794;2023-06-04T11:33:48;25.80;66.30
27759;DHT22;15148;48.972;12.794;2023-06-04T11:44:03;26.00;65.90
27759;DHT22;15148;48.972;12.794;2023-06-04T11:49:14;26.20;66.20
27759;DHT22;15148;48.972;12.794;2023-06-04T11:54:17;26.30;65.90
27759;DHT22;15148;48.972;12.794;2023-06-04T11:59:20;26.40;67.60
27759;DHT22;15148;48.972;12.794;2023-06-04T12:04:22;26.40;65.50
27759;DHT22;15148;48.972;12.794;2023-06-04T12:09:25;26.40;63.20
27759;DHT22;15148;48.972;12.794;2023-06-04T12:14:31;26.30;63.20
27759;DHT22;15148;48.972;12.794;2023-06-04T12:19:33;26.30;65.20
27759;DHT22;15148;48.972;12.794;2023-06-04T12:24:51;26.40;64.70
27759;DHT22;15148;48.972;12.794;2023-06-04T12:34:57;26.70;65.30
27759;DHT22;15148;48.972;12.794;2023-06-04T12:40:00;26.70;65.30
27759;DHT22;15148;48.972;12.794;2023-06-04T12:45:02;26.80;64.40
27759;DHT22;15148;48.972;12.794;2023-06-04T12:50:05;26.60;64.60
27759;DHT22;15148;48.972;12.794;2023-06-04T12:55:07;26.60;65.10
27759;DHT22;15148;48.972;12.794;2023-06-04T13:00:11;26.40;63.20
27759;DHT22;15148;48.972;12.794;2023-06-04T13:05:13;26.40;64.20
27759;DHT22;15148;48.972;12.794;2023-06-04T13:10:15;26.60;65.30
27759;DHT22;15148;48.972;12.794;2023-06-04T13:15:17;26.80;64.00
27759;DHT22;15148;48.972;12.794;2023-06-04T13:20:18;26.90;65.30
27759;DHT22;15148;48.972;12.794;2023-06-04T13:25:21;26.30;61.50
27759;DHT22;15148;48.972;12.794;2023-06-04T13:30:22;26.30;62.20
27759;DHT22;15148;48.972;12.794;2023-06-04T13:35:25;26.40;64.00
27759;DHT22;15148;48.972;12.794;2023-06-04T13:40:26;26.00;65.00
27759;DHT22;15148;48.972;12.794;2023-06-04T13:45:28;25.90;62.50
27759;DHT22;15148;48.972;12.794;2023-06-04T13:50:31;26.10;62.30
27759;DHT22;15148;48.972;12.794;2023-06-04T13:55:33;26.00;67.50
27759;DHT22;15148;48.972;12.794;2023-06-04T14:00:35;25.90;67.70
27759;DHT22;15148;48.972;12.794;2023-06-04T14:05:37;25.80;62.80
27759;DHT22;15148;48.972;12.794;2023-06-04T14:10:39;25.50;65.80
27759;DHT22;15148;48.972;12.794;2023-06-04T14:15:44;25.10;65.80
27759;DHT22;15148;48.972;12.794;2023-06-04T14:20:46;25.00;67.00
27759;DHT22;15148;48.972;12.794;2023-06-04T14:25:48;25.00;65.20
27759;DHT22;15148;48.972;12.794;2023-06-04T14:30:50;25.00;64.10
27759;DHT22;15148;48.972;12.794;2023-06-04T14:35:52;25.20;64.80
27759;DHT22;15148;48.972;12.794;2023-06-04T14:40:54;25.00;65.90
27759;DHT22;15148;48.972;12.794;2023-06-04T14:45:58;24.90;70.90
27759;DHT22;15148;48.972;12.794;2023-06-04T14:51:00;24.90;66.80
27759;DHT22;15148;48.972;12.794;2023-06-04T14:56:02;24.70;67.20
27759;DHT22;15148;48.972;12.794;2023-06-04T15:01:04;24.60;68.60
27759;DHT22;15148;48.972;12.794;2023-06-04T15:06:06;24.40;71.80
27759;DHT22;15148;48.972;12.794;2023-06-04T15:11:21;24.40;73.90
27759;DHT22;15148;48.972;12.794;2023-06-04T15:16:23;24.30;72.40
27759;DHT22;15148;48.972;12.794;2023-06-04T15:21:25;24.20;70.30
27759;DHT22;15148;48.972;12.794;2023-06-04T15:26:27;24.10;69.30
27759;DHT22;15148;48.972;12.794;2023-06-04T15:31:29;24.10;69.10
27759;DHT22;15148;48.972;12.794;2023-06-04T15:36:31;24.10;67.80
27759;DHT22;15148;48.972;12.794;2023-06-04T15:41:33;24.00;69.10
27759;DHT22;15148;48.972;12.794;2023-06-04T15:46:35;23.80;72.00
27759;DHT22;15148;48.972;12.794;2023-06-04T15:51:37;23.70;71.70
27759;DHT22;15148;48.972;12.794;2023-06-04T15:56:39;23.50;65.60
27759;DHT22;15148;48.972;12.794;2023-06-04T16:01:41;23.20;66.30
27759;DHT22;15148;48.972;12.794;2023-06-04T16:06:44;23.10;68.40
27759;DHT22;15148;48.972;12.794;2023-06-04T16:11:46;22.70;68.10
27759;DHT22;15148;48.972;12.794;2023-06-04T16:16:49;22.70;69.40
27759;DHT22;15148;48.972;12.794;2023-06-04T16:21:52;22.50;66.50
27759;DHT22;15148;48.972;12.794;2023-06-04T16:26:54;22.30;67.30
27759;DHT22;15148;48.972;12.794;2023-06-04T16:31:56;22.20;67.10
27759;DHT22;15148;48.972;12.794;2023-06-04T16:36:58;22.20;70.40
27759;DHT22;15148;48.972;12.794;2023-06-04T16:42:00;22.10;67.70
27759;DHT22;15148;48.972;12.794;2023-06-04T16:47:04;22.00;69.20
27759;DHT22;15148;48.972;12.794;2023-06-04T16:52:06;21.90;68.40
27759;DHT22;15148;48.972;12.794;2023-06-04T16:57:09;22.00;70.90
27759;DHT22;15148;48.972;12.794;2023-06-04T17:02:11;22.00;71.40
27759;DHT22;15148;48.972;12.794;2023-06-04T17:07:14;22.00;73.50
27759;DHT22;15148;48.972;12.794;2023-06-04T17:12:16;22.00;70.90
27759;DHT22;15148;48.972;12.794;2023-06-04T17:17:17;22.00;69.80
27759;DHT22;15148;48.972;12.794;2023-06-04T17:22:19;22.00;68.70
27759;DHT22;15148;48.972;12.794;2023-06-04T17:27:22;21.80;69.10
27759;DHT22;15148;48.972;12.794;2023-06-04T17:32:23;21.80;69.00
27759;DHT22;15148;48.972;12.794;2023-06-04T17:37:25;21.70;71.00
27759;DHT22;15148;48.972;12.794;2023-06-04T17:42:27;21.60;70.10
27759;DHT22;15148;48.972;12.794;2023-06-04T17:47:29;21.50;70.90
27759;DHT22;15148;48.972;12.794;2023-06-04T17:52:32;21.30;70.00
27759;DHT22;15148;48.972;12.794;2023-06-04T17:57:35;21.30;71.30
27759;DHT22;15148;48.972;12.794;2023-06-04T18:02:37;21.10;73.40
27759;DHT22;15148;48.972;12.794;2023-06-04T18:07:39;21.00;71.10
27759;DHT22;15148;48.972;12.794;2023-06-04T18:12:44;20.80;72.60
27759;DHT22;15148;48.972;12.794;2023-06-04T18:17:47;20.80;73.30
27759;DHT22;15148;48.972;12.794;2023-06-04T18:22:49;20.70;73.30
27759;DHT22;15148;48.972;12.794;2023-06-04T18:27:51;20.60;72.60
27759;DHT22;15148;48.972;12.794;2023-06-04T18:32:53;20.50;75.20
27759;DHT22;15148;48.972;12.794;2023-06-04T18:37:55;20.40;74.00
27759;DHT22;15148;48.972;12.794;2023-06-04T18:42:57;20.30;74.70
27759;DHT22;15148;48.972;12.794;2023-06-04T18:47:59;20.20;76.40
27759;DHT22;15148;48.972;12.794;2023-06-04T18:53:01;20.10;76.30
27759;DHT22;15148;48.972;12.794;2023-06-04T18:58:03;20.00;76.60
27759;DHT22;15148;48.972;12.794;2023-06-04T19:03:05;20.00;76.10
27759;DHT22;15148;48.972;12.794;2023-06-04T19:08:07;19.90;77.00
27759;DHT22;15148;48.972;12.794;2023-06-04T19:13:09;19.80;77.20
27759;DHT22;15148;48.972;12.794;2023-06-04T19:18:11;19.70;76.70
27759;DHT22;15148;48.972;12.794;2023-06-04T19:23:13;19.60;77.20
27759;DHT22;15148;48.972;12.794;2023-06-04T19:28:15;19.60;76.80
27759;DHT22;15148;48.972;12.794;2023-06-04T19:33:18;19.50;78.60
27759;DHT22;15148;48.972;12.794;2023-06-04T19:38:21;19.40;79.10
27759;DHT22;15148;48.972;12.794;2023-06-04T19:43:23;19.30;79.50
27759;DHT22;15148;48.972;12.794;2023-06-04T19:48:25;19.10;80.30
27759;DHT22;15148;48.972;12.794;2023-06-04T19:53:27;19.00;79.20
27759;DHT22;15148;48.972;12.794;2023-06-04T19:58:29;19.00;78.10
27759;DHT22;15148;48.972;12.794;2023-06-04T20:03:31;18.90;80.30
27759;DHT22;15148;48.972;12.794;2023-06-04T20:08:35;18.80;81.00
27759;DHT22;15148;48.972;12.794;2023-06-04T20:13:39;18.70;80.60
27759;DHT22;15148;48.972;12.794;2023-06-04T20:18:42;18.70;81.00
27759;DHT22;15148;48.972;12.794;2023-06-04T20:23:44;18.70;81.50
27759;DHT22;15148;48.972;12.794;2023-06-04T20:28:47;18.60;81.00
27759;DHT22;15148;48.972;12.794;2023-06-04T20:33:49;18.70;81.00
27759;DHT22;15148;48.972;12.794;2023-06-04T20:38:53;18.70;81.50
27759;DHT22;15148;48.972;12.794;2023-06-04T20:43:56;18.60;81.60
27759;DHT22;15148;48.972;12.794;2023-06-04T20:48:58;18.60;82.20
27759;DHT22;15148;48.972;12.794;2023-06-04T20:54:00;18.60;81.90
27759;DHT22;15148;48.972;12.794;2023-06-04T20:59:02;18.60;83.30
27759;DHT22;15148;48.972;12.794;2023-06-04T21:04:04;18.60;82.00
27759;DHT22;15148;48.972;12.794;2023-06-04T21:09:07;18.50;82.90
27759;DHT22;15148;48.972;12.794;2023-06-04T21:14:09;18.50;82.80
27759;DHT22;15148;48.972;12.794;2023-06-04T21:19:11;18.50;82.60
27759;DHT22;15148;48.972;12.794;2023-06-04T21:24:13;18.50;82.90
27759;DHT22;15148;48.972;12.794;2023-06-04T21:29:15;18.40;83.40
27759;DHT22;15148;48.972;12.794;2023-06-04T21:34:17;18.40;83.30
27759;DHT22;15148;48.972;12.794;2023-06-04T21:39:19;18.40;83.70
27759;DHT22;15148;48.972;12.794;2023-06-04T21:44:21;18.40;84.50
27759;DHT22;15148;48.972;12.794;2023-06-04T21:49:23;18.40;84.60
27759;DHT22;15148;48.972;12.794;2023-06-04T21:54:25;18.40;84.90
27759;DHT22;15148;48.972;12.794;2023-06-04T21:59:27;18.40;85.60
27759;DHT22;15148;48.972;12.794;2023-06-04T22:04:30;18.30;88.00
27759;DHT22;15148;48.972;12.794;2023-06-04T22:09:32;18.30;88.10
27759;DHT22;15148;48.972;12.794;2023-06-04T22:14:34;18.30;89.90
27759;DHT22;15148;48.972;12.794;2023-06-04T22:19:39;18.20;90.60
27759;DHT22;15148;48.972;12.794;2023-06-04T22:24:40;18.20;91.30
27759;DHT22;15148;48.972;12.794;2023-06-04T22:29:42;18.10;92.10
27759;DHT22;15148;48.972;12.794;2023-06-04T22:34:44;18.00;92.60
27759;DHT22;15148;48.972;12.794;2023-06-04T22:39:46;17.90;93.90
27759;DHT22;15148;48.972;12.794;2023-06-04T22:44:48;17.80;95.10
27759;DHT22;15148;48.972;12.794;2023-06-04T22:49:50;17.70;96.40
27759;DHT22;15148;48.972;12.794;2023-06-04T22:54:52;17.60;96.70
27759;DHT22;15148;48.972;12.794;2023-06-04T22:59:54;17.50;98.10
27759;DHT22;15148;48.972;12.794;2023-06-04T23:04:56;17.40;99.70
27759;DHT22;15148;48.972;12.794;2023-06-04T23:09:59;17.30;99.90
27759;DHT22;15148;48.972;12.794;2023-06-04T23:15:01;17.30;99.90
27759;DHT22;15148;48.972;12.794;2023-06-04T23:20:04;17.30;99.90
27759;DHT22;15148;48.972;12.794;2023-06-04T23:25:06;17.30;99.90
27759;DHT22;15148;48.972;12.794;2023-06-04T23:30:09;17.50;99.90
27759;DHT22;15148;48.972;12.794;2023-06-04T23:35:11;17.50;99.90
27759;DHT22;15148;48.972;12.794;2023-06-04T23:40:13;17.60;99.90
27759;DHT22;15148;48.972;12.794;2023-06-04T23:45:15;17.60;99.90
27759;DHT22;15148;48.972;12.794;2023-06-04T23:50:18;17.70;99.90
27759;DHT22;15148;48.972;12.794;2023-06-04T23:55:20;17.80;99.90
